Terminal Aerodrome Forecast
Issued by NWS Tampa Bay Area, FL

Home | Current Version | Previous Version | Text Only | Print | Product List | Glossary On
Versions: 1 2 3 4 5 6 7 8 9 10 11 12 13 14 15 16 17 18 19 20 21 22 23 24
000
FTUS42 KTBW 011100
TAFTPA
TAF
KTPA 011125Z 0112/0212 11005KT P6SM SCT250
     FM011500 14009KT P6SM SCT250
     FM011800 17010KT P6SM SCT050 SCT250
     FM012300 17007KT P6SM FEW050 BKN250
     FM020600 17007KT P6SM SCT020 BKN100=

USA.gov is the U.S. government's official web portal to all federal, state and local government web resources and services.